Gujranwala Weather



Gujranwala's Current Weather

Temprature 6o fog

fog

Rain: 0 %

Min Temprature6o
Max Temprature6o
Humidity100
Wind Speed1.54 m/h
Sun Rise07:03:38
Sun Set17:23:13
Current Time: 18-Jan-2021 06:33:53
Lat/Lon: 32.1617, 74.1883




Gujranwala's Geo Location



Gujranwala's Weather Forecast

Time Overall Temp Min Temp Max Temp Humidity Wind Speed Rain
18-Jan-2021 (Mon)
08:00:00 clear sky 7.310 7.310 8.680 85 1.45 m/h 0 %
11:00:00 clear sky 14.200 14.200 16.460 53 1.74 m/h 0 %
14:00:00 clear sky 19.080 19.080 19.970 35 0.79 m/h 0 %
17:00:00 clear sky 15.910 15.910 15.990 42 0.87 m/h 0 %
20:00:00 clear sky 12.740 12.740 12.740 47 1.64 m/h 0 %
23:00:00 clear sky 11.170 11.170 11.170 51 1.59 m/h 0 %
19-Jan-2021 (Tue)
02:00:00 clear sky 10.020 10.020 10.020 54 2.07 m/h 0 %
05:00:00 clear sky 9.230 9.230 9.230 59 1.91 m/h 0 %
08:00:00 clear sky 9.980 9.980 9.980 57 1.29 m/h 0 %
11:00:00 clear sky 17.520 17.520 17.520 37 2.58 m/h 0 %
14:00:00 clear sky 21.010 21.010 21.010 29 2.91 m/h 0 %
17:00:00 clear sky 17.200 17.200 17.200 39 2.07 m/h 0 %
20:00:00 clear sky 13.440 13.440 13.440 42 1.78 m/h 0 %
23:00:00 clear sky 11.670 11.670 11.670 44 1.7 m/h 0 %
20-Jan-2021 (Wed)
02:00:00 clear sky 10.290 10.290 10.290 46 2.06 m/h 0 %
05:00:00 clear sky 9.170 9.170 9.170 49 2.13 m/h 0 %
08:00:00 clear sky 9.890 9.890 9.890 48 1.92 m/h 0 %
11:00:00 clear sky 18.100 18.100 18.100 29 2.76 m/h 0 %
14:00:00 clear sky 21.860 21.860 21.860 23 3.58 m/h 0 %
17:00:00 clear sky 17.720 17.720 17.720 32 2.2 m/h 0 %
20:00:00 clear sky 13.590 13.590 13.590 37 2.69 m/h 0 %
23:00:00 few clouds 11.630 11.630 11.630 41 2.41 m/h 0 %
21-Jan-2021 (Thu)
02:00:00 few clouds 10.000 10.000 10.000 44 2.24 m/h 0 %
05:00:00 clear sky 8.830 8.830 8.830 48 2.06 m/h 0 %
08:00:00 clear sky 9.680 9.680 9.680 48 1.26 m/h 0 %
11:00:00 clear sky 17.980 17.980 17.980 28 2.01 m/h 0 %
14:00:00 clear sky 21.810 21.810 21.810 22 2.56 m/h 0 %
17:00:00 few clouds 17.350 17.350 17.350 30 1.39 m/h 0 %
20:00:00 broken clouds 13.370 13.370 13.370 37 0.33 m/h 0 %
23:00:00 broken clouds 12.470 12.470 12.470 39 2.05 m/h 0 %
22-Jan-2021 (Fri)
02:00:00 broken clouds 10.950 10.950 10.950 43 2.07 m/h 0 %
05:00:00 broken clouds 9.740 9.740 9.740 48 2.35 m/h 0 %
08:00:00 scattered clouds 10.250 10.250 10.250 48 2.25 m/h 0 %
11:00:00 broken clouds 17.770 17.770 17.770 30 2.2 m/h 0 %
14:00:00 overcast clouds 21.900 21.900 21.900 24 2.36 m/h 0 %
17:00:00 overcast clouds 18.270 18.270 18.270 36 2.84 m/h 0 %
20:00:00 clear sky 13.880 13.880 13.880 44 3.41 m/h 0 %
23:00:00 clear sky 12.310 12.310 12.310 47 3.82 m/h 0 %
23-Jan-2021 (Sat)
02:00:00 clear sky 11.230 11.230 11.230 48 3.63 m/h 0 %
05:00:00 clear sky 10.150 10.150 10.150 51 2.94 m/h 0 %

Famous Cities (60)